sensor_id;sensor_type;location;lat;lon;timestamp;P1;durP1;ratioP1;P2;durP2;ratioP2
7495;SDS011;3789;47.064;15.482;2023-12-14T00:01:04;15.97;;;11.40;;
7495;SDS011;3789;47.064;15.482;2023-12-14T00:03:39;15.90;;;10.77;;
7495;SDS011;3789;47.064;15.482;2023-12-14T00:06:12;14.90;;;10.60;;
7495;SDS011;3789;47.064;15.482;2023-12-14T00:08:46;17.77;;;11.40;;
7495;SDS011;3789;47.064;15.482;2023-12-14T00:11:16;17.07;;;11.63;;
7495;SDS011;3789;47.064;15.482;2023-12-14T00:13:46;16.63;;;12.40;;
7495;SDS011;3789;47.064;15.482;2023-12-14T00:16:24;16.10;;;11.53;;
7495;SDS011;3789;47.064;15.482;2023-12-14T00:18:51;16.83;;;11.57;;
7495;SDS011;3789;47.064;15.482;2023-12-14T00:21:20;14.40;;;11.10;;
7495;SDS011;3789;47.064;15.482;2023-12-14T00:23:54;17.23;;;11.77;;
7495;SDS011;3789;47.064;15.482;2023-12-14T00:26:23;14.97;;;10.87;;
7495;SDS011;3789;47.064;15.482;2023-12-14T00:28:53;16.40;;;11.13;;
7495;SDS011;3789;47.064;15.482;2023-12-14T00:31:32;18.53;;;11.83;;
7495;SDS011;3789;47.064;15.482;2023-12-14T00:34:00;16.93;;;12.03;;
7495;SDS011;3789;47.064;15.482;2023-12-14T00:36:31;17.00;;;12.70;;
7495;SDS011;3789;47.064;15.482;2023-12-14T00:39:00;18.47;;;12.27;;
7495;SDS011;3789;47.064;15.482;2023-12-14T00:41:29;19.97;;;12.53;;
7495;SDS011;3789;47.064;15.482;2023-12-14T00:43:58;17.20;;;12.17;;
7495;SDS011;3789;47.064;15.482;2023-12-14T00:46:29;17.73;;;12.17;;
7495;SDS011;3789;47.064;15.482;2023-12-14T00:49:04;16.30;;;11.73;;
7495;SDS011;3789;47.064;15.482;2023-12-14T00:51:36;14.13;;;11.10;;
7495;SDS011;3789;47.064;15.482;2023-12-14T00:54:06;18.20;;;11.90;;
7495;SDS011;3789;47.064;15.482;2023-12-14T00:56:35;17.47;;;11.50;;
7495;SDS011;3789;47.064;15.482;2023-12-14T00:59:05;18.40;;;12.37;;
7495;SDS011;3789;47.064;15.482;2023-12-14T01:01:35;15.23;;;11.57;;
7495;SDS011;3789;47.064;15.482;2023-12-14T01:04:07;16.90;;;12.03;;
7495;SDS011;3789;47.064;15.482;2023-12-14T01:06:42;14.43;;;10.63;;
7495;SDS011;3789;47.064;15.482;2023-12-14T01:09:16;17.47;;;10.73;;
7495;SDS011;3789;47.064;15.482;2023-12-14T01:11:45;16.77;;;10.00;;
7495;SDS011;3789;47.064;15.482;2023-12-14T01:14:16;16.00;;;11.10;;
7495;SDS011;3789;47.064;15.482;2023-12-14T01:16:45;14.70;;;11.63;;
7495;SDS011;3789;47.064;15.482;2023-12-14T01:19:13;16.53;;;10.80;;
7495;SDS011;3789;47.064;15.482;2023-12-14T01:21:44;13.87;;;10.23;;
7495;SDS011;3789;47.064;15.482;2023-12-14T01:24:16;16.70;;;11.50;;
7495;SDS011;3789;47.064;15.482;2023-12-14T01:26:50;15.67;;;11.70;;
7495;SDS011;3789;47.064;15.482;2023-12-14T01:29:22;18.20;;;11.43;;
7495;SDS011;3789;47.064;15.482;2023-12-14T01:32:01;16.07;;;9.87;;
7495;SDS011;3789;47.064;15.482;2023-12-14T01:34:34;15.87;;;11.27;;
7495;SDS011;3789;47.064;15.482;2023-12-14T01:37:04;15.63;;;10.97;;
7495;SDS011;3789;47.064;15.482;2023-12-14T01:39:38;13.77;;;11.07;;
7495;SDS011;3789;47.064;15.482;2023-12-14T01:42:08;14.40;;;10.77;;
7495;SDS011;3789;47.064;15.482;2023-12-14T01:44:46;14.63;;;10.90;;
7495;SDS011;3789;47.064;15.482;2023-12-14T01:47:16;15.40;;;10.70;;
7495;SDS011;3789;47.064;15.482;2023-12-14T01:49:53;17.57;;;10.83;;
7495;SDS011;3789;47.064;15.482;2023-12-14T01:52:21;14.50;;;10.43;;
7495;SDS011;3789;47.064;15.482;2023-12-14T01:54:51;14.20;;;10.67;;
7495;SDS011;3789;47.064;15.482;2023-12-14T01:57:25;14.27;;;10.77;;
7495;SDS011;3789;47.064;15.482;2023-12-14T01:59:54;14.07;;;10.07;;
7495;SDS011;3789;47.064;15.482;2023-12-14T02:02:24;14.03;;;9.37;;
7495;SDS011;3789;47.064;15.482;2023-12-14T02:04:52;15.50;;;10.27;;
7495;SDS011;3789;47.064;15.482;2023-12-14T02:07:38;14.10;;;10.33;;
7495;SDS011;3789;47.064;15.482;2023-12-14T02:10:07;12.03;;;9.37;;
7495;SDS011;3789;47.064;15.482;2023-12-14T02:12:45;14.30;;;10.30;;
7495;SDS011;3789;47.064;15.482;2023-12-14T02:15:22;16.57;;;9.50;;
7495;SDS011;3789;47.064;15.482;2023-12-14T02:18:04;15.87;;;9.60;;
7495;SDS011;3789;47.064;15.482;2023-12-14T02:20:34;14.50;;;9.50;;
7495;SDS011;3789;47.064;15.482;2023-12-14T02:23:01;12.97;;;9.73;;
7495;SDS011;3789;47.064;15.482;2023-12-14T02:25:31;13.57;;;9.67;;
7495;SDS011;3789;47.064;15.482;2023-12-14T02:28:06;13.40;;;9.53;;
7495;SDS011;3789;47.064;15.482;2023-12-14T02:30:35;11.97;;;9.50;;
7495;SDS011;3789;47.064;15.482;2023-12-14T02:33:04;14.57;;;9.67;;
7495;SDS011;3789;47.064;15.482;2023-12-14T02:35:33;12.73;;;9.20;;
7495;SDS011;3789;47.064;15.482;2023-12-14T02:38:02;10.50;;;8.27;;
7495;SDS011;3789;47.064;15.482;2023-12-14T02:40:33;11.00;;;8.83;;
7495;SDS011;3789;47.064;15.482;2023-12-14T02:43:02;14.43;;;8.93;;
7495;SDS011;3789;47.064;15.482;2023-12-14T02:45:39;11.23;;;8.10;;
7495;SDS011;3789;47.064;15.482;2023-12-14T02:48:07;12.03;;;8.13;;
7495;SDS011;3789;47.064;15.482;2023-12-14T02:50:38;10.50;;;7.83;;
7495;SDS011;3789;47.064;15.482;2023-12-14T02:53:17;12.13;;;8.60;;
7495;SDS011;3789;47.064;15.482;2023-12-14T02:55:47;15.70;;;8.47;;
7495;SDS011;3789;47.064;15.482;2023-12-14T02:58:16;14.27;;;8.70;;
7495;SDS011;3789;47.064;15.482;2023-12-14T03:00:46;9.77;;;7.50;;
7495;SDS011;3789;47.064;15.482;2023-12-14T03:03:23;8.43;;;7.13;;
7495;SDS011;3789;47.064;15.482;2023-12-14T03:05:59;11.37;;;7.43;;
7495;SDS011;3789;47.064;15.482;2023-12-14T03:08:32;8.83;;;7.33;;
7495;SDS011;3789;47.064;15.482;2023-12-14T03:11:01;10.30;;;7.47;;
7495;SDS011;3789;47.064;15.482;2023-12-14T03:13:32;9.60;;;6.93;;
7495;SDS011;3789;47.064;15.482;2023-12-14T03:16:08;9.47;;;7.20;;
7495;SDS011;3789;47.064;15.482;2023-12-14T03:18:47;9.83;;;7.47;;
7495;SDS011;3789;47.064;15.482;2023-12-14T03:21:23;10.43;;;7.80;;
7495;SDS011;3789;47.064;15.482;2023-12-14T03:23:53;11.73;;;7.50;;
7495;SDS011;3789;47.064;15.482;2023-12-14T03:26:23;12.90;;;7.37;;
7495;SDS011;3789;47.064;15.482;2023-12-14T03:28:53;12.13;;;7.47;;
7495;SDS011;3789;47.064;15.482;2023-12-14T03:31:32;10.60;;;7.30;;
7495;SDS011;3789;47.064;15.482;2023-12-14T03:34:04;10.43;;;7.23;;
7495;SDS011;3789;47.064;15.482;2023-12-14T03:36:51;9.77;;;6.93;;
7495;SDS011;3789;47.064;15.482;2023-12-14T03:39:21;11.60;;;6.97;;
7495;SDS011;3789;47.064;15.482;2023-12-14T03:41:52;11.60;;;8.30;;
7495;SDS011;3789;47.064;15.482;2023-12-14T03:44:21;9.63;;;7.90;;
7495;SDS011;3789;47.064;15.482;2023-12-14T03:47:00;10.03;;;7.17;;
7495;SDS011;3789;47.064;15.482;2023-12-14T03:49:36;11.07;;;7.60;;
7495;SDS011;3789;47.064;15.482;2023-12-14T03:52:06;12.57;;;7.73;;
7495;SDS011;3789;47.064;15.482;2023-12-14T03:54:38;10.83;;;7.37;;
7495;SDS011;3789;47.064;15.482;2023-12-14T03:57:07;11.60;;;6.93;;
7495;SDS011;3789;47.064;15.482;2023-12-14T03:59:47;9.33;;;7.70;;
7495;SDS011;3789;47.064;15.482;2023-12-14T04:02:16;12.03;;;7.90;;
7495;SDS011;3789;47.064;15.482;2023-12-14T04:04:46;11.27;;;7.30;;
7495;SDS011;3789;47.064;15.482;2023-12-14T04:07:19;11.73;;;7.23;;
7495;SDS011;3789;47.064;15.482;2023-12-14T04:09:55;8.93;;;7.37;;
7495;SDS011;3789;47.064;15.482;2023-12-14T04:12:25;10.60;;;7.93;;
7495;SDS011;3789;47.064;15.482;2023-12-14T04:14:55;10.57;;;7.30;;
7495;SDS011;3789;47.064;15.482;2023-12-14T04:17:26;10.00;;;7.17;;
7495;SDS011;3789;47.064;15.482;2023-12-14T04:20:02;10.17;;;7.37;;
7495;SDS011;3789;47.064;15.482;2023-12-14T04:22:40;10.70;;;7.60;;
7495;SDS011;3789;47.064;15.482;2023-12-14T04:25:17;11.40;;;7.63;;
7495;SDS011;3789;47.064;15.482;2023-12-14T04:28:29;10.90;;;8.47;;
7495;SDS011;3789;47.064;15.482;2023-12-14T04:31:34;13.27;;;9.90;;
7495;SDS011;3789;47.064;15.482;2023-12-14T04:34:47;22.80;;;11.60;;
7495;SDS011;3789;47.064;15.482;2023-12-14T04:37:40;14.97;;;10.47;;
7495;SDS011;3789;47.064;15.482;2023-12-14T04:47:13;32.27;;;15.20;;
7495;SDS011;3789;47.064;15.482;2023-12-14T04:49:55;28.73;;;13.83;;
7495;SDS011;3789;47.064;15.482;2023-12-14T04:52:36;20.43;;;14.17;;
7495;SDS011;3789;47.064;15.482;2023-12-14T04:55:25;16.93;;;13.47;;
7495;SDS011;3789;47.064;15.482;2023-12-14T04:58:15;18.33;;;13.70;;
7495;SDS011;3789;47.064;15.482;2023-12-14T05:04:47;16.33;;;11.40;;
7495;SDS011;3789;47.064;15.482;2023-12-14T05:07:30;16.50;;;11.87;;
7495;SDS011;3789;47.064;15.482;2023-12-14T05:10:46;15.87;;;11.93;;
7495;SDS011;3789;47.064;15.482;2023-12-14T05:13:33;15.43;;;12.27;;
7495;SDS011;3789;47.064;15.482;2023-12-14T05:16:30;19.50;;;11.73;;
7495;SDS011;3789;47.064;15.482;2023-12-14T05:19:42;13.27;;;10.20;;
7495;SDS011;3789;47.064;15.482;2023-12-14T05:22:17;17.23;;;11.50;;
7495;SDS011;3789;47.064;15.482;2023-12-14T05:25:12;12.63;;;10.43;;
7495;SDS011;3789;47.064;15.482;2023-12-14T05:28:03;15.60;;;10.33;;
7495;SDS011;3789;47.064;15.482;2023-12-14T05:30:46;13.43;;;10.07;;
7495;SDS011;3789;47.064;15.482;2023-12-14T05:33:50;15.37;;;10.80;;
7495;SDS011;3789;47.064;15.482;2023-12-14T05:36:25;16.13;;;10.77;;
7495;SDS011;3789;47.064;15.482;2023-12-14T05:39:56;14.23;;;11.17;;
7495;SDS011;3789;47.064;15.482;2023-12-14T05:42:45;15.97;;;12.60;;
7495;SDS011;3789;47.064;15.482;2023-12-14T05:45:45;16.27;;;13.10;;
7495;SDS011;3789;47.064;15.482;2023-12-14T05:52:02;14.97;;;12.17;;
7495;SDS011;3789;47.064;15.482;2023-12-14T05:55:14;38.40;;;14.20;;
7495;SDS011;3789;47.064;15.482;2023-12-14T05:58:03;16.73;;;12.37;;
7495;SDS011;3789;47.064;15.482;2023-12-14T06:00:40;19.30;;;14.13;;
7495;SDS011;3789;47.064;15.482;2023-12-14T06:03:37;18.60;;;14.33;;
7495;SDS011;3789;47.064;15.482;2023-12-14T06:06:41;18.57;;;13.30;;
7495;SDS011;3789;47.064;15.482;2023-12-14T06:09:48;17.73;;;13.13;;
7495;SDS011;3789;47.064;15.482;2023-12-14T06:13:28;16.07;;;11.67;;
7495;SDS011;3789;47.064;15.482;2023-12-14T06:16:42;18.60;;;11.97;;
7495;SDS011;3789;47.064;15.482;2023-12-14T06:19:14;13.53;;;10.90;;
7495;SDS011;3789;47.064;15.482;2023-12-14T06:21:56;15.77;;;11.60;;
7495;SDS011;3789;47.064;15.482;2023-12-14T06:24:39;13.30;;;10.93;;
7495;SDS011;3789;47.064;15.482;2023-12-14T06:30:40;13.27;;;9.90;;
7495;SDS011;3789;47.064;15.482;2023-12-14T06:33:21;14.13;;;10.97;;
7495;SDS011;3789;47.064;15.482;2023-12-14T06:35:55;16.50;;;10.47;;
7495;SDS011;3789;47.064;15.482;2023-12-14T06:38:38;12.97;;;10.70;;
7495;SDS011;3789;47.064;15.482;2023-12-14T06:41:33;13.87;;;10.77;;
7495;SDS011;3789;47.064;15.482;2023-12-14T06:44:14;11.93;;;10.27;;
7495;SDS011;3789;47.064;15.482;2023-12-14T06:47:01;16.53;;;11.10;;
7495;SDS011;3789;47.064;15.482;2023-12-14T06:49:49;14.40;;;11.20;;
7495;SDS011;3789;47.064;15.482;2023-12-14T06:52:45;13.03;;;11.03;;
7495;SDS011;3789;47.064;15.482;2023-12-14T06:55:41;16.83;;;11.00;;
7495;SDS011;3789;47.064;15.482;2023-12-14T06:58:46;15.10;;;10.87;;
7495;SDS011;3789;47.064;15.482;2023-12-14T07:01:48;14.20;;;10.07;;
7495;SDS011;3789;47.064;15.482;2023-12-14T07:04:17;16.30;;;10.83;;
7495;SDS011;3789;47.064;15.482;2023-12-14T07:07:13;15.57;;;10.70;;
7495;SDS011;3789;47.064;15.482;2023-12-14T07:10:43;16.33;;;10.90;;
7495;SDS011;3789;47.064;15.482;2023-12-14T07:13:47;17.03;;;11.30;;
7495;SDS011;3789;47.064;15.482;2023-12-14T07:17:09;15.77;;;11.63;;
7495;SDS011;3789;47.064;15.482;2023-12-14T07:22:32;15.67;;;10.43;;
7495;SDS011;3789;47.064;15.482;2023-12-14T07:25:31;15.83;;;10.27;;
7495;SDS011;3789;47.064;15.482;2023-12-14T07:28:26;12.93;;;10.53;;
7495;SDS011;3789;47.064;15.482;2023-12-14T07:30:56;15.17;;;10.67;;
7495;SDS011;3789;47.064;15.482;2023-12-14T07:33:25;13.57;;;9.97;;
7495;SDS011;3789;47.064;15.482;2023-12-14T07:36:17;16.33;;;11.33;;
7495;SDS011;3789;47.064;15.482;2023-12-14T07:38:54;16.03;;;11.43;;
7495;SDS011;3789;47.064;15.482;2023-12-14T07:41:50;17.73;;;11.40;;
7495;SDS011;3789;47.064;15.482;2023-12-14T07:47:44;16.13;;;10.47;;
7495;SDS011;3789;47.064;15.482;2023-12-14T07:51:16;16.00;;;11.43;;
7495;SDS011;3789;47.064;15.482;2023-12-14T07:54:01;15.13;;;11.63;;
7495;SDS011;3789;47.064;15.482;2023-12-14T07:56:53;15.53;;;11.40;;
7495;SDS011;3789;47.064;15.482;2023-12-14T08:02:43;19.63;;;14.10;;
7495;SDS011;3789;47.064;15.482;2023-12-14T08:05:29;23.53;;;18.47;;
7495;SDS011;3789;47.064;15.482;2023-12-14T08:07:58;24.63;;;16.50;;
7495;SDS011;3789;47.064;15.482;2023-12-14T08:10:26;26.93;;;19.60;;
7495;SDS011;3789;47.064;15.482;2023-12-14T08:13:09;21.90;;;15.43;;
7495;SDS011;3789;47.064;15.482;2023-12-14T08:15:39;18.60;;;14.40;;
7495;SDS011;3789;47.064;15.482;2023-12-14T08:18:08;18.17;;;13.17;;
7495;SDS011;3789;47.064;15.482;2023-12-14T08:20:39;19.07;;;14.80;;
7495;SDS011;3789;47.064;15.482;2023-12-14T08:23:12;17.17;;;13.53;;
7495;SDS011;3789;47.064;15.482;2023-12-14T08:25:53;19.03;;;12.87;;
7495;SDS011;3789;47.064;15.482;2023-12-14T08:28:42;14.13;;;10.20;;
7495;SDS011;3789;47.064;15.482;2023-12-14T08:31:13;11.73;;;8.80;;
7495;SDS011;3789;47.064;15.482;2023-12-14T08:33:43;12.70;;;8.60;;
7495;SDS011;3789;47.064;15.482;2023-12-14T08:36:18;11.30;;;8.70;;
7495;SDS011;3789;47.064;15.482;2023-12-14T08:38:47;9.10;;;8.03;;
7495;SDS011;3789;47.064;15.482;2023-12-14T08:41:17;13.20;;;9.10;;
7495;SDS011;3789;47.064;15.482;2023-12-14T08:43:50;13.83;;;9.30;;
7495;SDS011;3789;47.064;15.482;2023-12-14T08:46:20;16.57;;;12.60;;
7495;SDS011;3789;47.064;15.482;2023-12-14T08:48:56;21.20;;;16.10;;
7495;SDS011;3789;47.064;15.482;2023-12-14T08:51:34;17.20;;;13.70;;
7495;SDS011;3789;47.064;15.482;2023-12-14T08:54:06;26.43;;;17.70;;
7495;SDS011;3789;47.064;15.482;2023-12-14T08:56:42;32.23;;;22.23;;
7495;SDS011;3789;47.064;15.482;2023-12-14T08:59:10;28.17;;;21.97;;
7495;SDS011;3789;47.064;15.482;2023-12-14T09:01:39;25.23;;;18.97;;
7495;SDS011;3789;47.064;15.482;2023-12-14T09:04:11;23.13;;;16.60;;
7495;SDS011;3789;47.064;15.482;2023-12-14T09:06:41;13.83;;;10.70;;
7495;SDS011;3789;47.064;15.482;2023-12-14T09:09:16;20.23;;;13.93;;
7495;SDS011;3789;47.064;15.482;2023-12-14T09:11:48;22.40;;;18.50;;
7495;SDS011;3789;47.064;15.482;2023-12-14T09:14:19;24.40;;;18.60;;
7495;SDS011;3789;47.064;15.482;2023-12-14T09:16:48;22.60;;;17.43;;
7495;SDS011;3789;47.064;15.482;2023-12-14T09:19:21;24.83;;;16.50;;
7495;SDS011;3789;47.064;15.482;2023-12-14T09:21:50;24.17;;;16.83;;
7495;SDS011;3789;47.064;15.482;2023-12-14T09:24:20;20.30;;;15.73;;
7495;SDS011;3789;47.064;15.482;2023-12-14T09:26:50;20.60;;;14.30;;
7495;SDS011;3789;47.064;15.482;2023-12-14T09:29:20;18.80;;;14.37;;
7495;SDS011;3789;47.064;15.482;2023-12-14T09:31:51;14.50;;;12.57;;
7495;SDS011;3789;47.064;15.482;2023-12-14T09:34:22;16.30;;;12.40;;
7495;SDS011;3789;47.064;15.482;2023-12-14T09:36:50;15.67;;;11.67;;
7495;SDS011;3789;47.064;15.482;2023-12-14T09:39:23;12.50;;;9.70;;
7495;SDS011;3789;47.064;15.482;2023-12-14T09:42:05;14.97;;;12.03;;
7495;SDS011;3789;47.064;15.482;2023-12-14T09:44:36;18.83;;;10.80;;
7495;SDS011;3789;47.064;15.482;2023-12-14T09:47:09;10.37;;;8.27;;
7495;SDS011;3789;47.064;15.482;2023-12-14T09:49:38;14.33;;;11.53;;
7495;SDS011;3789;47.064;15.482;2023-12-14T09:52:12;15.40;;;11.90;;
7495;SDS011;3789;47.064;15.482;2023-12-14T09:54:44;17.20;;;12.40;;
7495;SDS011;3789;47.064;15.482;2023-12-14T09:57:14;17.10;;;12.57;;
7495;SDS011;3789;47.064;15.482;2023-12-14T09:59:50;19.93;;;13.17;;
7495;SDS011;3789;47.064;15.482;2023-12-14T10:02:27;12.70;;;10.50;;
7495;SDS011;3789;47.064;15.482;2023-12-14T10:04:56;11.67;;;9.43;;
7495;SDS011;3789;47.064;15.482;2023-12-14T10:07:43;17.10;;;11.30;;
7495;SDS011;3789;47.064;15.482;2023-12-14T10:10:14;10.53;;;8.70;;
7495;SDS011;3789;47.064;15.482;2023-12-14T10:12:53;14.93;;;9.03;;
7495;SDS011;3789;47.064;15.482;2023-12-14T10:15:24;12.67;;;9.40;;
7495;SDS011;3789;47.064;15.482;2023-12-14T10:17:55;14.43;;;10.70;;
7495;SDS011;3789;47.064;15.482;2023-12-14T10:20:28;13.73;;;11.57;;
7495;SDS011;3789;47.064;15.482;2023-12-14T10:22:58;13.83;;;10.70;;
7495;SDS011;3789;47.064;15.482;2023-12-14T10:25:29;13.90;;;10.57;;
7495;SDS011;3789;47.064;15.482;2023-12-14T10:28:06;12.17;;;10.23;;
7495;SDS011;3789;47.064;15.482;2023-12-14T10:30:41;12.07;;;10.70;;
7495;SDS011;3789;47.064;15.482;2023-12-14T10:33:11;13.50;;;10.20;;
7495;SDS011;3789;47.064;15.482;2023-12-14T10:35:44;11.80;;;9.97;;
7495;SDS011;3789;47.064;15.482;2023-12-14T10:38:15;11.30;;;9.60;;
7495;SDS011;3789;47.064;15.482;2023-12-14T10:40:46;12.17;;;9.20;;
7495;SDS011;3789;47.064;15.482;2023-12-14T10:43:18;11.20;;;8.53;;
7495;SDS011;3789;47.064;15.482;2023-12-14T10:46:09;10.13;;;8.73;;
7495;SDS011;3789;47.064;15.482;2023-12-14T10:48:43;9.83;;;8.27;;
7495;SDS011;3789;47.064;15.482;2023-12-14T10:51:23;9.97;;;7.47;;
7495;SDS011;3789;47.064;15.482;2023-12-14T10:53:55;9.40;;;6.93;;
7495;SDS011;3789;47.064;15.482;2023-12-14T10:56:29;8.33;;;6.43;;
7495;SDS011;3789;47.064;15.482;2023-12-14T10:58:59;6.77;;;5.40;;
7495;SDS011;3789;47.064;15.482;2023-12-14T11:01:35;6.43;;;5.03;;
7495;SDS011;3789;47.064;15.482;2023-12-14T11:04:07;6.23;;;4.70;;
7495;SDS011;3789;47.064;15.482;2023-12-14T11:06:43;6.60;;;5.40;;
7495;SDS011;3789;47.064;15.482;2023-12-14T11:09:16;7.77;;;5.90;;
7495;SDS011;3789;47.064;15.482;2023-12-14T11:14:27;6.20;;;4.70;;
7495;SDS011;3789;47.064;15.482;2023-12-14T11:17:05;5.13;;;3.67;;
7495;SDS011;3789;47.064;15.482;2023-12-14T11:19:35;4.70;;;4.00;;
7495;SDS011;3789;47.064;15.482;2023-12-14T11:22:11;6.40;;;4.80;;
7495;SDS011;3789;47.064;15.482;2023-12-14T11:24:55;5.60;;;4.30;;
7495;SDS011;3789;47.064;15.482;2023-12-14T11:27:27;6.67;;;4.63;;
7495;SDS011;3789;47.064;15.482;2023-12-14T11:29:58;5.17;;;4.33;;
7495;SDS011;3789;47.064;15.482;2023-12-14T11:32:29;4.73;;;4.10;;
7495;SDS011;3789;47.064;15.482;2023-12-14T11:34:57;5.07;;;4.57;;
7495;SDS011;3789;47.064;15.482;2023-12-14T11:37:34;6.80;;;4.37;;
7495;SDS011;3789;47.064;15.482;2023-12-14T11:40:07;5.27;;;4.30;;
7495;SDS011;3789;47.064;15.482;2023-12-14T11:42:40;5.27;;;4.37;;
7495;SDS011;3789;47.064;15.482;2023-12-14T11:45:21;5.63;;;4.10;;
7495;SDS011;3789;47.064;15.482;2023-12-14T11:47:50;4.63;;;4.23;;
7495;SDS011;3789;47.064;15.482;2023-12-14T11:50:24;5.20;;;4.43;;
7495;SDS011;3789;47.064;15.482;2023-12-14T11:53:06;5.90;;;4.13;;
7495;SDS011;3789;47.064;15.482;2023-12-14T11:55:36;5.50;;;3.80;;
7495;SDS011;3789;47.064;15.482;2023-12-14T11:58:12;8.43;;;5.67;;
7495;SDS011;3789;47.064;15.482;2023-12-14T12:01:17;10.60;;;9.37;;
7495;SDS011;3789;47.064;15.482;2023-12-14T12:03:51;13.23;;;10.80;;
7495;SDS011;3789;47.064;15.482;2023-12-14T12:06:21;13.10;;;10.73;;
7495;SDS011;3789;47.064;15.482;2023-12-14T12:08:59;12.87;;;10.97;;
7495;SDS011;3789;47.064;15.482;2023-12-14T12:11:35;14.27;;;11.73;;
7495;SDS011;3789;47.064;15.482;2023-12-14T12:14:07;12.27;;;10.30;;
7495;SDS011;3789;47.064;15.482;2023-12-14T12:16:36;12.90;;;10.60;;
7495;SDS011;3789;47.064;15.482;2023-12-14T12:19:09;16.03;;;11.43;;
7495;SDS011;3789;47.064;15.482;2023-12-14T12:21:40;12.97;;;10.77;;
7495;SDS011;3789;47.064;15.482;2023-12-14T12:24:10;12.53;;;9.37;;
7495;SDS011;3789;47.064;15.482;2023-12-14T12:26:54;9.07;;;8.13;;
7495;SDS011;3789;47.064;15.482;2023-12-14T12:29:23;8.53;;;5.83;;
7495;SDS011;3789;47.064;15.482;2023-12-14T12:31:52;2.60;;;2.40;;
7495;SDS011;3789;47.064;15.482;2023-12-14T12:34:22;2.60;;;2.10;;
7495;SDS011;3789;47.064;15.482;2023-12-14T12:37:01;2.23;;;1.87;;
7495;SDS011;3789;47.064;15.482;2023-12-14T12:39:39;2.93;;;1.53;;
7495;SDS011;3789;47.064;15.482;2023-12-14T12:42:16;1.60;;;1.50;;
7495;SDS011;3789;47.064;15.482;2023-12-14T12:44:52;4.03;;;1.50;;
7495;SDS011;3789;47.064;15.482;2023-12-14T12:47:23;1.37;;;1.27;;
7495;SDS011;3789;47.064;15.482;2023-12-14T12:49:52;1.40;;;1.30;;
7495;SDS011;3789;47.064;15.482;2023-12-14T12:52:22;1.63;;;1.30;;
7495;SDS011;3789;47.064;15.482;2023-12-14T12:54:50;3.03;;;1.43;;
7495;SDS011;3789;47.064;15.482;2023-12-14T13:02:20;1.87;;;1.37;;
7495;SDS011;3789;47.064;15.482;2023-12-14T13:04:54;3.40;;;1.50;;
7495;SDS011;3789;47.064;15.482;2023-12-14T13:07:25;3.63;;;1.50;;
7495;SDS011;3789;47.064;15.482;2023-12-14T13:27:56;2.20;;;1.40;;
7495;SDS011;3789;47.064;15.482;2023-12-14T13:30:26;1.40;;;1.30;;
7495;SDS011;3789;47.064;15.482;2023-12-14T13:32:56;1.43;;;1.33;;
7495;SDS011;3789;47.064;15.482;2023-12-14T13:35:31;2.33;;;1.60;;
7495;SDS011;3789;47.064;15.482;2023-12-14T13:38:01;1.70;;;1.37;;
7495;SDS011;3789;47.064;15.482;2023-12-14T13:40:31;1.30;;;1.20;;
7495;SDS011;3789;47.064;15.482;2023-12-14T13:42:59;1.57;;;1.20;;
7495;SDS011;3789;47.064;15.482;2023-12-14T13:45:33;1.57;;;1.27;;
7495;SDS011;3789;47.064;15.482;2023-12-14T13:48:01;1.53;;;1.40;;
7495;SDS011;3789;47.064;15.482;2023-12-14T13:50:30;2.37;;;1.70;;
7495;SDS011;3789;47.064;15.482;2023-12-14T13:53:06;2.87;;;1.97;;
7495;SDS011;3789;47.064;15.482;2023-12-14T13:55:35;2.63;;;1.40;;
7495;SDS011;3789;47.064;15.482;2023-12-14T13:58:04;2.43;;;1.73;;
7495;SDS011;3789;47.064;15.482;2023-12-14T14:00:33;2.50;;;1.60;;
7495;SDS011;3789;47.064;15.482;2023-12-14T14:03:02;2.63;;;1.77;;
7495;SDS011;3789;47.064;15.482;2023-12-14T14:05:32;1.57;;;1.43;;
7495;SDS011;3789;47.064;15.482;2023-12-14T14:08:02;3.97;;;3.10;;
7495;SDS011;3789;47.064;15.482;2023-12-14T14:10:45;5.47;;;3.77;;
7495;SDS011;3789;47.064;15.482;2023-12-14T14:13:12;4.10;;;2.67;;
7495;SDS011;3789;47.064;15.482;2023-12-14T14:15:43;4.97;;;3.10;;
7495;SDS011;3789;47.064;15.482;2023-12-14T14:18:18;4.73;;;3.13;;
7495;SDS011;3789;47.064;15.482;2023-12-14T14:20:56;3.63;;;2.20;;
7495;SDS011;3789;47.064;15.482;2023-12-14T14:23:25;4.80;;;2.90;;
7495;SDS011;3789;47.064;15.482;2023-12-14T14:25:54;4.40;;;2.33;;
7495;SDS011;3789;47.064;15.482;2023-12-14T14:28:23;5.00;;;2.57;;
7495;SDS011;3789;47.064;15.482;2023-12-14T14:30:53;2.40;;;1.70;;
7495;SDS011;3789;47.064;15.482;2023-12-14T14:33:23;5.33;;;2.50;;
7495;SDS011;3789;47.064;15.482;2023-12-14T14:35:54;3.00;;;2.70;;
7495;SDS011;3789;47.064;15.482;2023-12-14T14:38:23;3.73;;;3.33;;
7495;SDS011;3789;47.064;15.482;2023-12-14T14:40:53;3.57;;;3.07;;
7495;SDS011;3789;47.064;15.482;2023-12-14T14:43:20;4.37;;;3.97;;
7495;SDS011;3789;47.064;15.482;2023-12-14T14:45:50;4.67;;;3.73;;
7495;SDS011;3789;47.064;15.482;2023-12-14T14:48:21;6.50;;;4.70;;
7495;SDS011;3789;47.064;15.482;2023-12-14T14:50:52;8.23;;;5.70;;
7495;SDS011;3789;47.064;15.482;2023-12-14T14:53:32;6.67;;;5.27;;
7495;SDS011;3789;47.064;15.482;2023-12-14T14:56:03;7.87;;;5.37;;
7495;SDS011;3789;47.064;15.482;2023-12-14T14:58:31;6.93;;;5.57;;
7495;SDS011;3789;47.064;15.482;2023-12-14T15:01:11;8.73;;;5.97;;
7495;SDS011;3789;47.064;15.482;2023-12-14T15:03:45;6.60;;;5.30;;
7495;SDS011;3789;47.064;15.482;2023-12-14T15:06:22;5.07;;;3.70;;
7495;SDS011;3789;47.064;15.482;2023-12-14T15:08:59;6.90;;;4.80;;
7495;SDS011;3789;47.064;15.482;2023-12-14T15:11:33;6.60;;;4.43;;
7495;SDS011;3789;47.064;15.482;2023-12-14T15:14:03;5.60;;;4.33;;
7495;SDS011;3789;47.064;15.482;2023-12-14T15:16:34;5.13;;;4.50;;
7495;SDS011;3789;47.064;15.482;2023-12-14T15:19:05;6.67;;;4.97;;
7495;SDS011;3789;47.064;15.482;2023-12-14T15:21:33;7.17;;;6.20;;
7495;SDS011;3789;47.064;15.482;2023-12-14T15:24:04;9.23;;;6.70;;
7495;SDS011;3789;47.064;15.482;2023-12-14T15:26:33;7.63;;;5.93;;
7495;SDS011;3789;47.064;15.482;2023-12-14T15:29:01;8.37;;;6.07;;
7495;SDS011;3789;47.064;15.482;2023-12-14T15:31:33;4.43;;;3.77;;
7495;SDS011;3789;47.064;15.482;2023-12-14T15:34:04;2.60;;;2.40;;
7495;SDS011;3789;47.064;15.482;2023-12-14T15:36:39;2.27;;;2.07;;
7495;SDS011;3789;47.064;15.482;2023-12-14T15:39:16;2.87;;;2.10;;
7495;SDS011;3789;47.064;15.482;2023-12-14T15:41:47;2.20;;;2.00;;
7495;SDS011;3789;47.064;15.482;2023-12-14T15:44:15;3.37;;;1.90;;
7495;SDS011;3789;47.064;15.482;2023-12-14T15:46:52;1.77;;;1.63;;
7495;SDS011;3789;47.064;15.482;2023-12-14T15:49:20;2.03;;;1.60;;
7495;SDS011;3789;47.064;15.482;2023-12-14T15:51:49;2.70;;;2.10;;
7495;SDS011;3789;47.064;15.482;2023-12-14T15:54:26;2.47;;;1.90;;
7495;SDS011;3789;47.064;15.482;2023-12-14T15:56:58;1.73;;;1.63;;
7495;SDS011;3789;47.064;15.482;2023-12-14T15:59:42;1.90;;;1.60;;
7495;SDS011;3789;47.064;15.482;2023-12-14T16:02:21;1.70;;;1.50;;
7495;SDS011;3789;47.064;15.482;2023-12-14T16:04:58;1.60;;;1.50;;
7495;SDS011;3789;47.064;15.482;2023-12-14T16:07:37;1.50;;;1.40;;
7495;SDS011;3789;47.064;15.482;2023-12-14T16:10:16;1.93;;;1.73;;
7495;SDS011;3789;47.064;15.482;2023-12-14T16:12:52;6.27;;;4.37;;
7495;SDS011;3789;47.064;15.482;2023-12-14T16:15:21;6.07;;;4.80;;
7495;SDS011;3789;47.064;15.482;2023-12-14T16:17:55;6.07;;;3.60;;
7495;SDS011;3789;47.064;15.482;2023-12-14T16:20:30;8.57;;;4.63;;
7495;SDS011;3789;47.064;15.482;2023-12-14T16:23:00;5.43;;;3.90;;
7495;SDS011;3789;47.064;15.482;2023-12-14T16:25:35;6.90;;;5.20;;
7495;SDS011;3789;47.064;15.482;2023-12-14T16:28:16;5.53;;;4.77;;
7495;SDS011;3789;47.064;15.482;2023-12-14T16:30:49;6.77;;;4.93;;
7495;SDS011;3789;47.064;15.482;2023-12-14T16:33:18;8.07;;;5.23;;